Barnstead, New Hampshire
Current Conditions -  °F | °C
As of 5:51 PM on Monday 24 Nov 2014 (Local Time) from KCON Reporting Station
Overcast Overcast  
Wind Chill: 63°   Ceiling: 3300
Heat Index: 63°   Visibility: 10mi
Dew Point: 56°   Wind: 9mph
Humidity: 78%   Direction: 190°S
Pressure: 29.56"   Gusts: NA
Location:  43.33°N, 71.29°W
Report Text: KCON 242251Z AUTO 19008KT 10SM OVC033 17/13 A2956 RMK AO2 SLP011 T01720133
Loading
Personal Weather Stations






























Interactive Weather Map New forecast layout! Learn more

10-Day Weather Forecast

Advertisements
Track Severe Weather on mobile